sensor_id;sensor_type;location;lat;lon;timestamp;P1;durP1;ratioP1;P2;durP2;ratioP2
7541;SDS011;3812;50.006;8.230;2022-09-20T00:02:18;5.10;;;2.57;;
7541;SDS011;3812;50.006;8.230;2022-09-20T00:04:46;8.07;;;2.90;;
7541;SDS011;3812;50.006;8.230;2022-09-20T00:07:13;6.32;;;2.72;;
7541;SDS011;3812;50.006;8.230;2022-09-20T00:09:40;5.60;;;2.63;;
7541;SDS011;3812;50.006;8.230;2022-09-20T00:12:07;6.43;;;2.33;;
7541;SDS011;3812;50.006;8.230;2022-09-20T00:14:34;7.63;;;2.60;;
7541;SDS011;3812;50.006;8.230;2022-09-20T00:17:02;7.17;;;2.50;;
7541;SDS011;3812;50.006;8.230;2022-09-20T00:19:29;3.83;;;2.40;;
7541;SDS011;3812;50.006;8.230;2022-09-20T00:21:56;9.67;;;3.07;;
7541;SDS011;3812;50.006;8.230;2022-09-20T00:24:23;7.10;;;2.77;;
7541;SDS011;3812;50.006;8.230;2022-09-20T00:26:50;8.57;;;3.50;;
7541;SDS011;3812;50.006;8.230;2022-09-20T00:29:17;6.45;;;3.63;;
7541;SDS011;3812;50.006;8.230;2022-09-20T00:31:44;8.10;;;3.00;;
7541;SDS011;3812;50.006;8.230;2022-09-20T00:34:12;4.47;;;2.67;;
7541;SDS011;3812;50.006;8.230;2022-09-20T00:36:57;7.07;;;3.20;;
7541;SDS011;3812;50.006;8.230;2022-09-20T00:39:24;7.07;;;3.30;;
7541;SDS011;3812;50.006;8.230;2022-09-20T00:41:51;6.80;;;3.07;;
7541;SDS011;3812;50.006;8.230;2022-09-20T00:47:14;5.43;;;3.50;;
7541;SDS011;3812;50.006;8.230;2022-09-20T00:49:52;8.50;;;3.40;;
7541;SDS011;3812;50.006;8.230;2022-09-20T00:52:24;9.07;;;3.70;;
7541;SDS011;3812;50.006;8.230;2022-09-20T00:54:53;7.30;;;3.33;;
7541;SDS011;3812;50.006;8.230;2022-09-20T00:57:20;9.20;;;3.37;;
7541;SDS011;3812;50.006;8.230;2022-09-20T00:59:48;23.43;;;4.47;;
7541;SDS011;3812;50.006;8.230;2022-09-20T01:02:18;6.57;;;3.50;;
7541;SDS011;3812;50.006;8.230;2022-09-20T01:04:48;8.93;;;3.87;;
7541;SDS011;3812;50.006;8.230;2022-09-20T01:07:19;6.87;;;3.53;;
7541;SDS011;3812;50.006;8.230;2022-09-20T01:09:47;9.23;;;3.90;;
7541;SDS011;3812;50.006;8.230;2022-09-20T01:12:17;9.30;;;3.23;;
7541;SDS011;3812;50.006;8.230;2022-09-20T01:14:45;6.10;;;4.00;;
7541;SDS011;3812;50.006;8.230;2022-09-20T01:17:15;7.27;;;3.60;;
7541;SDS011;3812;50.006;8.230;2022-09-20T01:19:46;6.73;;;3.17;;
7541;SDS011;3812;50.006;8.230;2022-09-20T01:22:21;6.93;;;3.10;;
7541;SDS011;3812;50.006;8.230;2022-09-20T01:24:54;9.30;;;3.50;;
7541;SDS011;3812;50.006;8.230;2022-09-20T01:27:38;5.50;;;3.47;;
7541;SDS011;3812;50.006;8.230;2022-09-20T01:30:07;9.93;;;3.67;;
7541;SDS011;3812;50.006;8.230;2022-09-20T01:32:58;9.63;;;3.23;;
7541;SDS011;3812;50.006;8.230;2022-09-20T01:35:33;6.93;;;3.60;;
7541;SDS011;3812;50.006;8.230;2022-09-20T01:38:04;7.00;;;3.53;;
7541;SDS011;3812;50.006;8.230;2022-09-20T01:40:45;7.90;;;3.20;;
7541;SDS011;3812;50.006;8.230;2022-09-20T01:43:20;7.23;;;3.03;;
7541;SDS011;3812;50.006;8.230;2022-09-20T01:45:55;3.33;;;2.90;;
7541;SDS011;3812;50.006;8.230;2022-09-20T01:48:30;5.33;;;3.00;;
7541;SDS011;3812;50.006;8.230;2022-09-20T02:00:03;6.67;;;3.33;;
7541;SDS011;3812;50.006;8.230;2022-09-20T02:12:02;9.20;;;3.40;;
7541;SDS011;3812;50.006;8.230;2022-09-20T02:14:50;7.80;;;3.43;;
7541;SDS011;3812;50.006;8.230;2022-09-20T02:17:23;7.50;;;3.10;;
7541;SDS011;3812;50.006;8.230;2022-09-20T02:19:59;6.07;;;3.50;;
7541;SDS011;3812;50.006;8.230;2022-09-20T02:22:45;6.03;;;2.77;;
7541;SDS011;3812;50.006;8.230;2022-09-20T02:25:28;8.67;;;2.80;;
7541;SDS011;3812;50.006;8.230;2022-09-20T02:28:20;4.53;;;2.70;;
7541;SDS011;3812;50.006;8.230;2022-09-20T02:31:00;5.60;;;3.27;;
7541;SDS011;3812;50.006;8.230;2022-09-20T02:33:38;5.20;;;3.47;;
7541;SDS011;3812;50.006;8.230;2022-09-20T02:36:36;7.23;;;3.33;;
7541;SDS011;3812;50.006;8.230;2022-09-20T02:39:09;5.87;;;3.50;;
7541;SDS011;3812;50.006;8.230;2022-09-20T02:41:50;4.00;;;3.60;;
7541;SDS011;3812;50.006;8.230;2022-09-20T02:44:26;7.13;;;5.07;;
7541;SDS011;3812;50.006;8.230;2022-09-20T02:47:05;13.57;;;5.67;;
7541;SDS011;3812;50.006;8.230;2022-09-20T02:49:41;12.60;;;7.40;;
7541;SDS011;3812;50.006;8.230;2022-09-20T02:52:21;9.87;;;5.60;;
7541;SDS011;3812;50.006;8.230;2022-09-20T02:54:55;8.93;;;6.13;;
7541;SDS011;3812;50.006;8.230;2022-09-20T02:57:27;12.30;;;6.90;;
7541;SDS011;3812;50.006;8.230;2022-09-20T03:00:03;17.23;;;6.20;;
7541;SDS011;3812;50.006;8.230;2022-09-20T03:02:35;11.40;;;6.63;;
7541;SDS011;3812;50.006;8.230;2022-09-20T03:05:12;15.23;;;7.00;;
7541;SDS011;3812;50.006;8.230;2022-09-20T03:07:53;10.70;;;6.73;;
7541;SDS011;3812;50.006;8.230;2022-09-20T03:10:31;13.43;;;6.83;;
7541;SDS011;3812;50.006;8.230;2022-09-20T03:13:12;11.40;;;6.37;;
7541;SDS011;3812;50.006;8.230;2022-09-20T03:15:49;10.60;;;6.37;;
7541;SDS011;3812;50.006;8.230;2022-09-20T03:18:25;11.43;;;6.37;;
7541;SDS011;3812;50.006;8.230;2022-09-20T03:21:04;11.97;;;6.80;;
7541;SDS011;3812;50.006;8.230;2022-09-20T03:23:47;13.57;;;6.87;;
7541;SDS011;3812;50.006;8.230;2022-09-20T03:26:26;12.03;;;6.83;;
7541;SDS011;3812;50.006;8.230;2022-09-20T03:29:01;11.50;;;6.40;;
7541;SDS011;3812;50.006;8.230;2022-09-20T03:34:28;16.30;;;6.60;;
7541;SDS011;3812;50.006;8.230;2022-09-20T03:37:10;9.53;;;6.53;;
7541;SDS011;3812;50.006;8.230;2022-09-20T03:39:54;15.00;;;6.47;;
7541;SDS011;3812;50.006;8.230;2022-09-20T03:42:45;11.43;;;6.27;;
7541;SDS011;3812;50.006;8.230;2022-09-20T03:48:09;10.73;;;6.10;;
7541;SDS011;3812;50.006;8.230;2022-09-20T03:50:56;9.80;;;5.83;;
7541;SDS011;3812;50.006;8.230;2022-09-20T03:53:58;8.57;;;5.87;;
7541;SDS011;3812;50.006;8.230;2022-09-20T03:56:53;8.97;;;5.70;;
7541;SDS011;3812;50.006;8.230;2022-09-20T03:59:38;12.10;;;5.13;;
7541;SDS011;3812;50.006;8.230;2022-09-20T04:02:22;9.20;;;5.03;;
7541;SDS011;3812;50.006;8.230;2022-09-20T04:04:59;9.30;;;5.30;;
7541;SDS011;3812;50.006;8.230;2022-09-20T04:07:30;10.73;;;5.33;;
7541;SDS011;3812;50.006;8.230;2022-09-20T04:10:15;6.73;;;4.50;;
7541;SDS011;3812;50.006;8.230;2022-09-20T04:12:52;11.27;;;5.53;;
7541;SDS011;3812;50.006;8.230;2022-09-20T04:15:30;10.67;;;5.20;;
7541;SDS011;3812;50.006;8.230;2022-09-20T04:18:03;9.33;;;5.50;;
7541;SDS011;3812;50.006;8.230;2022-09-20T04:20:38;8.17;;;5.00;;
7541;SDS011;3812;50.006;8.230;2022-09-20T04:23:14;8.80;;;5.43;;
7541;SDS011;3812;50.006;8.230;2022-09-20T04:25:51;8.67;;;4.37;;
7541;SDS011;3812;50.006;8.230;2022-09-20T04:28:20;10.40;;;5.57;;
7541;SDS011;3812;50.006;8.230;2022-09-20T04:30:52;10.83;;;4.87;;
7541;SDS011;3812;50.006;8.230;2022-09-20T04:33:22;10.07;;;4.97;;
7541;SDS011;3812;50.006;8.230;2022-09-20T04:35:54;8.10;;;5.10;;
7541;SDS011;3812;50.006;8.230;2022-09-20T04:38:53;8.83;;;5.07;;
7541;SDS011;3812;50.006;8.230;2022-09-20T04:41:32;10.20;;;4.87;;
7541;SDS011;3812;50.006;8.230;2022-09-20T04:44:37;7.83;;;4.80;;
7541;SDS011;3812;50.006;8.230;2022-09-20T04:47:27;9.27;;;4.43;;
7541;SDS011;3812;50.006;8.230;2022-09-20T04:50:19;8.77;;;4.37;;
7541;SDS011;3812;50.006;8.230;2022-09-20T04:53:06;7.77;;;4.40;;
7541;SDS011;3812;50.006;8.230;2022-09-20T04:55:52;9.67;;;5.10;;
7541;SDS011;3812;50.006;8.230;2022-09-20T04:58:38;6.10;;;4.23;;
7541;SDS011;3812;50.006;8.230;2022-09-20T05:04:32;7.30;;;3.73;;
7541;SDS011;3812;50.006;8.230;2022-09-20T05:10:48;8.80;;;3.60;;
7541;SDS011;3812;50.006;8.230;2022-09-20T05:13:40;9.03;;;4.33;;
7541;SDS011;3812;50.006;8.230;2022-09-20T05:16:24;4.60;;;3.23;;
7541;SDS011;3812;50.006;8.230;2022-09-20T05:19:11;10.97;;;3.67;;
7541;SDS011;3812;50.006;8.230;2022-09-20T05:24:59;8.70;;;3.77;;
7541;SDS011;3812;50.006;8.230;2022-09-20T05:27:52;9.93;;;3.40;;
7541;SDS011;3812;50.006;8.230;2022-09-20T05:30:29;6.77;;;3.30;;
7541;SDS011;3812;50.006;8.230;2022-09-20T05:33:03;8.03;;;3.03;;
7541;SDS011;3812;50.006;8.230;2022-09-20T05:35:47;5.97;;;3.23;;
7541;SDS011;3812;50.006;8.230;2022-09-20T05:38:25;6.90;;;3.33;;
7541;SDS011;3812;50.006;8.230;2022-09-20T05:41:05;8.30;;;3.30;;
7541;SDS011;3812;50.006;8.230;2022-09-20T05:43:40;7.90;;;3.20;;
7541;SDS011;3812;50.006;8.230;2022-09-20T05:46:16;5.97;;;3.20;;
7541;SDS011;3812;50.006;8.230;2022-09-20T05:48:52;4.40;;;3.10;;
7541;SDS011;3812;50.006;8.230;2022-09-20T05:51:27;6.97;;;3.03;;
7541;SDS011;3812;50.006;8.230;2022-09-20T05:56:53;6.93;;;2.87;;
7541;SDS011;3812;50.006;8.230;2022-09-20T05:59:35;8.03;;;3.00;;
7541;SDS011;3812;50.006;8.230;2022-09-20T06:02:17;8.27;;;3.03;;
7541;SDS011;3812;50.006;8.230;2022-09-20T06:04:57;7.10;;;3.40;;
7541;SDS011;3812;50.006;8.230;2022-09-20T06:07:31;5.37;;;3.17;;
7541;SDS011;3812;50.006;8.230;2022-09-20T06:10:14;6.43;;;3.07;;
7541;SDS011;3812;50.006;8.230;2022-09-20T06:12:51;7.37;;;2.90;;
7541;SDS011;3812;50.006;8.230;2022-09-20T06:15:27;6.50;;;3.10;;
7541;SDS011;3812;50.006;8.230;2022-09-20T06:18:13;6.30;;;3.10;;
7541;SDS011;3812;50.006;8.230;2022-09-20T06:20:49;7.73;;;3.20;;
7541;SDS011;3812;50.006;8.230;2022-09-20T06:23:22;6.07;;;3.20;;
7541;SDS011;3812;50.006;8.230;2022-09-20T06:25:50;6.13;;;3.33;;
7541;SDS011;3812;50.006;8.230;2022-09-20T06:28:21;4.07;;;3.03;;
7541;SDS011;3812;50.006;8.230;2022-09-20T06:30:52;8.37;;;3.80;;
7541;SDS011;3812;50.006;8.230;2022-09-20T06:33:23;6.20;;;3.53;;
7541;SDS011;3812;50.006;8.230;2022-09-20T06:35:51;8.10;;;3.23;;
7541;SDS011;3812;50.006;8.230;2022-09-20T06:38:44;8.57;;;3.20;;
7541;SDS011;3812;50.006;8.230;2022-09-20T06:41:37;4.53;;;3.30;;
7541;SDS011;3812;50.006;8.230;2022-09-20T06:44:09;7.30;;;3.33;;
7541;SDS011;3812;50.006;8.230;2022-09-20T06:46:36;9.17;;;4.17;;
7541;SDS011;3812;50.006;8.230;2022-09-20T06:49:07;5.90;;;3.20;;
7541;SDS011;3812;50.006;8.230;2022-09-20T06:51:35;8.53;;;4.10;;
7541;SDS011;3812;50.006;8.230;2022-09-20T06:54:03;6.37;;;4.30;;
7541;SDS011;3812;50.006;8.230;2022-09-20T06:56:35;4.07;;;3.23;;
7541;SDS011;3812;50.006;8.230;2022-09-20T06:59:02;7.77;;;3.80;;
7541;SDS011;3812;50.006;8.230;2022-09-20T07:01:32;10.77;;;3.90;;
7541;SDS011;3812;50.006;8.230;2022-09-20T07:03:59;7.83;;;4.03;;
7541;SDS011;3812;50.006;8.230;2022-09-20T07:06:28;6.50;;;3.77;;
7541;SDS011;3812;50.006;8.230;2022-09-20T07:08:55;7.13;;;3.50;;
7541;SDS011;3812;50.006;8.230;2022-09-20T07:11:22;6.30;;;3.57;;
7541;SDS011;3812;50.006;8.230;2022-09-20T07:13:50;6.87;;;3.90;;
7541;SDS011;3812;50.006;8.230;2022-09-20T07:16:19;7.97;;;3.70;;
7541;SDS011;3812;50.006;8.230;2022-09-20T07:18:46;5.20;;;3.60;;
7541;SDS011;3812;50.006;8.230;2022-09-20T07:21:14;6.50;;;4.00;;
7541;SDS011;3812;50.006;8.230;2022-09-20T07:23:44;5.07;;;3.10;;
7541;SDS011;3812;50.006;8.230;2022-09-20T07:26:15;7.47;;;3.00;;
7541;SDS011;3812;50.006;8.230;2022-09-20T07:28:44;6.23;;;3.60;;
7541;SDS011;3812;50.006;8.230;2022-09-20T07:31:11;5.00;;;3.50;;
7541;SDS011;3812;50.006;8.230;2022-09-20T07:33:38;5.73;;;3.30;;
7541;SDS011;3812;50.006;8.230;2022-09-20T07:36:05;7.13;;;3.17;;
7541;SDS011;3812;50.006;8.230;2022-09-20T07:38:32;6.90;;;3.80;;
7541;SDS011;3812;50.006;8.230;2022-09-20T07:41:00;6.57;;;3.80;;
7541;SDS011;3812;50.006;8.230;2022-09-20T07:43:28;7.67;;;4.23;;
7541;SDS011;3812;50.006;8.230;2022-09-20T07:45:56;6.40;;;3.07;;
7541;SDS011;3812;50.006;8.230;2022-09-20T07:48:25;8.10;;;3.97;;
7541;SDS011;3812;50.006;8.230;2022-09-20T07:50:54;8.43;;;4.03;;
7541;SDS011;3812;50.006;8.230;2022-09-20T07:53:22;6.23;;;3.50;;
7541;SDS011;3812;50.006;8.230;2022-09-20T07:55:58;5.80;;;3.53;;
7541;SDS011;3812;50.006;8.230;2022-09-20T07:58:29;10.07;;;3.30;;
7541;SDS011;3812;50.006;8.230;2022-09-20T08:00:58;4.70;;;2.90;;
7541;SDS011;3812;50.006;8.230;2022-09-20T08:03:27;6.93;;;3.87;;
7541;SDS011;3812;50.006;8.230;2022-09-20T08:05:57;7.53;;;3.40;;
7541;SDS011;3812;50.006;8.230;2022-09-20T08:08:25;9.80;;;3.87;;
7541;SDS011;3812;50.006;8.230;2022-09-20T08:10:59;6.10;;;3.67;;
7541;SDS011;3812;50.006;8.230;2022-09-20T08:13:30;5.67;;;3.47;;
7541;SDS011;3812;50.006;8.230;2022-09-20T08:16:00;7.33;;;3.70;;
7541;SDS011;3812;50.006;8.230;2022-09-20T08:18:28;10.27;;;3.67;;
7541;SDS011;3812;50.006;8.230;2022-09-20T08:20:55;7.07;;;3.47;;
7541;SDS011;3812;50.006;8.230;2022-09-20T08:23:22;7.57;;;3.20;;
7541;SDS011;3812;50.006;8.230;2022-09-20T08:25:49;6.40;;;3.20;;
7541;SDS011;3812;50.006;8.230;2022-09-20T08:28:17;6.17;;;3.17;;
7541;SDS011;3812;50.006;8.230;2022-09-20T08:30:44;8.53;;;3.63;;
7541;SDS011;3812;50.006;8.230;2022-09-20T08:33:11;5.27;;;3.40;;
7541;SDS011;3812;50.006;8.230;2022-09-20T08:35:39;9.57;;;3.30;;
7541;SDS011;3812;50.006;8.230;2022-09-20T08:38:06;6.07;;;3.00;;
7541;SDS011;3812;50.006;8.230;2022-09-20T08:40:33;5.37;;;3.17;;
7541;SDS011;3812;50.006;8.230;2022-09-20T08:43:00;6.30;;;3.20;;
7541;SDS011;3812;50.006;8.230;2022-09-20T08:45:29;6.90;;;2.70;;
7541;SDS011;3812;50.006;8.230;2022-09-20T08:47:57;7.17;;;2.80;;
7541;SDS011;3812;50.006;8.230;2022-09-20T08:50:26;3.63;;;2.40;;
7541;SDS011;3812;50.006;8.230;2022-09-20T08:52:54;5.13;;;2.73;;
7541;SDS011;3812;50.006;8.230;2022-09-20T08:55:23;7.23;;;2.57;;
7541;SDS011;3812;50.006;8.230;2022-09-20T08:57:56;6.50;;;3.00;;
7541;SDS011;3812;50.006;8.230;2022-09-20T09:00:24;5.93;;;2.93;;
7541;SDS011;3812;50.006;8.230;2022-09-20T09:02:56;7.10;;;2.87;;
7541;SDS011;3812;50.006;8.230;2022-09-20T09:05:31;5.73;;;3.00;;
7541;SDS011;3812;50.006;8.230;2022-09-20T09:08:01;12.40;;;3.40;;
7541;SDS011;3812;50.006;8.230;2022-09-20T09:10:34;5.83;;;2.77;;
7541;SDS011;3812;50.006;8.230;2022-09-20T09:13:02;7.33;;;2.93;;
7541;SDS011;3812;50.006;8.230;2022-09-20T09:15:31;5.47;;;3.00;;
7541;SDS011;3812;50.006;8.230;2022-09-20T09:18:02;3.77;;;2.80;;
7541;SDS011;3812;50.006;8.230;2022-09-20T09:20:32;5.40;;;2.97;;
7541;SDS011;3812;50.006;8.230;2022-09-20T09:23:07;5.97;;;3.33;;
7541;SDS011;3812;50.006;8.230;2022-09-20T09:25:45;7.40;;;3.07;;
7541;SDS011;3812;50.006;8.230;2022-09-20T09:28:13;6.20;;;3.60;;
7541;SDS011;3812;50.006;8.230;2022-09-20T09:30:41;8.90;;;3.63;;
7541;SDS011;3812;50.006;8.230;2022-09-20T09:33:15;7.40;;;3.73;;
7541;SDS011;3812;50.006;8.230;2022-09-20T09:35:50;5.27;;;3.07;;
7541;SDS011;3812;50.006;8.230;2022-09-20T09:38:20;7.30;;;4.00;;
7541;SDS011;3812;50.006;8.230;2022-09-20T09:40:49;8.17;;;4.03;;
7541;SDS011;3812;50.006;8.230;2022-09-20T09:43:19;8.23;;;3.33;;
7541;SDS011;3812;50.006;8.230;2022-09-20T09:45:51;5.73;;;3.43;;
7541;SDS011;3812;50.006;8.230;2022-09-20T09:48:21;8.00;;;3.30;;
7541;SDS011;3812;50.006;8.230;2022-09-20T09:51:06;12.63;;;4.00;;
7541;SDS011;3812;50.006;8.230;2022-09-20T09:53:35;5.53;;;3.37;;
7541;SDS011;3812;50.006;8.230;2022-09-20T09:56:18;6.27;;;3.00;;
7541;SDS011;3812;50.006;8.230;2022-09-20T09:58:56;4.53;;;3.10;;
7541;SDS011;3812;50.006;8.230;2022-09-20T10:01:37;5.27;;;2.80;;
7541;SDS011;3812;50.006;8.230;2022-09-20T10:04:11;5.10;;;3.37;;
7541;SDS011;3812;50.006;8.230;2022-09-20T10:06:49;4.07;;;2.73;;
7541;SDS011;3812;50.006;8.230;2022-09-20T10:09:28;3.97;;;2.67;;
7541;SDS011;3812;50.006;8.230;2022-09-20T10:12:13;6.80;;;3.23;;
7541;SDS011;3812;50.006;8.230;2022-09-20T10:14:53;6.50;;;3.00;;
7541;SDS011;3812;50.006;8.230;2022-09-20T10:17:35;5.20;;;2.70;;
7541;SDS011;3812;50.006;8.230;2022-09-20T10:20:21;5.70;;;3.23;;
7541;SDS011;3812;50.006;8.230;2022-09-20T10:23:01;3.10;;;2.57;;
7541;SDS011;3812;50.006;8.230;2022-09-20T10:25:40;6.67;;;2.57;;
7541;SDS011;3812;50.006;8.230;2022-09-20T10:28:17;4.63;;;3.20;;
7541;SDS011;3812;50.006;8.230;2022-09-20T10:31:01;3.50;;;2.33;;
7541;SDS011;3812;50.006;8.230;2022-09-20T10:33:37;4.00;;;2.40;;
7541;SDS011;3812;50.006;8.230;2022-09-20T10:36:13;4.93;;;2.90;;
7541;SDS011;3812;50.006;8.230;2022-09-20T10:38:49;5.97;;;2.63;;
7541;SDS011;3812;50.006;8.230;2022-09-20T10:41:28;4.67;;;2.37;;
7541;SDS011;3812;50.006;8.230;2022-09-20T10:44:32;6.57;;;2.70;;
7541;SDS011;3812;50.006;8.230;2022-09-20T10:47:16;5.47;;;2.93;;
7541;SDS011;3812;50.006;8.230;2022-09-20T10:49:46;5.80;;;2.47;;
7541;SDS011;3812;50.006;8.230;2022-09-20T10:52:36;4.17;;;2.87;;
7541;SDS011;3812;50.006;8.230;2022-09-20T10:55:13;4.77;;;2.60;;
7541;SDS011;3812;50.006;8.230;2022-09-20T10:57:53;4.90;;;2.63;;
7541;SDS011;3812;50.006;8.230;2022-09-20T11:00:46;5.93;;;2.50;;
7541;SDS011;3812;50.006;8.230;2022-09-20T11:03:28;3.53;;;2.63;;
7541;SDS011;3812;50.006;8.230;2022-09-20T11:06:14;5.70;;;2.90;;
7541;SDS011;3812;50.006;8.230;2022-09-20T11:08:48;6.00;;;2.73;;
7541;SDS011;3812;50.006;8.230;2022-09-20T11:11:20;5.43;;;2.73;;
7541;SDS011;3812;50.006;8.230;2022-09-20T11:13:53;3.20;;;2.30;;
7541;SDS011;3812;50.006;8.230;2022-09-20T11:16:27;7.00;;;2.47;;
7541;SDS011;3812;50.006;8.230;2022-09-20T11:19:03;5.43;;;2.70;;
7541;SDS011;3812;50.006;8.230;2022-09-20T11:21:36;7.53;;;2.67;;
7541;SDS011;3812;50.006;8.230;2022-09-20T11:24:09;4.90;;;2.10;;
7541;SDS011;3812;50.006;8.230;2022-09-20T11:26:42;3.33;;;1.83;;
7541;SDS011;3812;50.006;8.230;2022-09-20T11:29:17;4.60;;;1.60;;
7541;SDS011;3812;50.006;8.230;2022-09-20T11:31:48;2.50;;;1.40;;
7541;SDS011;3812;50.006;8.230;2022-09-20T11:34:19;1.77;;;1.30;;
7541;SDS011;3812;50.006;8.230;2022-09-20T11:36:51;1.60;;;1.50;;
7541;SDS011;3812;50.006;8.230;2022-09-20T11:39:26;2.00;;;1.40;;
7541;SDS011;3812;50.006;8.230;2022-09-20T11:42:00;2.17;;;1.47;;
7541;SDS011;3812;50.006;8.230;2022-09-20T11:44:29;3.70;;;1.53;;
7541;SDS011;3812;50.006;8.230;2022-09-20T11:46:58;2.53;;;1.30;;
7541;SDS011;3812;50.006;8.230;2022-09-20T11:49:28;1.67;;;1.20;;
7541;SDS011;3812;50.006;8.230;2022-09-20T11:52:06;2.37;;;1.53;;
7541;SDS011;3812;50.006;8.230;2022-09-20T11:54:51;2.40;;;1.67;;
7541;SDS011;3812;50.006;8.230;2022-09-20T11:57:39;3.87;;;1.37;;
7541;SDS011;3812;50.006;8.230;2022-09-20T12:00:07;2.63;;;1.60;;
7541;SDS011;3812;50.006;8.230;2022-09-20T12:02:43;3.47;;;1.97;;
7541;SDS011;3812;50.006;8.230;2022-09-20T12:05:26;4.33;;;1.70;;
7541;SDS011;3812;50.006;8.230;2022-09-20T12:07:58;3.30;;;1.60;;
7541;SDS011;3812;50.006;8.230;2022-09-20T12:10:29;2.27;;;1.53;;
7541;SDS011;3812;50.006;8.230;2022-09-20T12:12:59;4.10;;;2.03;;
7541;SDS011;3812;50.006;8.230;2022-09-20T12:15:28;3.10;;;1.47;;
7541;SDS011;3812;50.006;8.230;2022-09-20T12:18:00;3.90;;;1.80;;
7541;SDS011;3812;50.006;8.230;2022-09-20T12:26:35;3.77;;;2.00;;
7541;SDS011;3812;50.006;8.230;2022-09-20T12:38:44;5.07;;;2.17;;
7541;SDS011;3812;50.006;8.230;2022-09-20T12:41:22;7.10;;;2.50;;
7541;SDS011;3812;50.006;8.230;2022-09-20T12:43:55;2.87;;;1.90;;
7541;SDS011;3812;50.006;8.230;2022-09-20T12:46:30;7.10;;;2.50;;
7541;SDS011;3812;50.006;8.230;2022-09-20T12:49:11;2.23;;;1.70;;
7541;SDS011;3812;50.006;8.230;2022-09-20T12:52:22;3.50;;;1.40;;
7541;SDS011;3812;50.006;8.230;2022-09-20T12:55:32;3.33;;;1.67;;
7541;SDS011;3812;50.006;8.230;2022-09-20T12:58:17;2.83;;;1.67;;
7541;SDS011;3812;50.006;8.230;2022-09-20T13:00:49;3.53;;;1.50;;
7541;SDS011;3812;50.006;8.230;2022-09-20T13:03:37;2.97;;;1.43;;
7541;SDS011;3812;50.006;8.230;2022-09-20T13:06:21;2.47;;;1.57;;
7541;SDS011;3812;50.006;8.230;2022-09-20T13:08:51;2.80;;;1.70;;
7541;SDS011;3812;50.006;8.230;2022-09-20T13:11:23;4.07;;;1.60;;
7541;SDS011;3812;50.006;8.230;2022-09-20T13:13:55;3.40;;;1.47;;
7541;SDS011;3812;50.006;8.230;2022-09-20T13:16:26;7.03;;;2.30;;
7541;SDS011;3812;50.006;8.230;2022-09-20T13:19:00;1.90;;;1.60;;
7541;SDS011;3812;50.006;8.230;2022-09-20T13:21:30;5.30;;;1.90;;
7541;SDS011;3812;50.006;8.230;2022-09-20T13:23:57;5.20;;;1.87;;
7541;SDS011;3812;50.006;8.230;2022-09-20T13:26:27;5.47;;;1.70;;
7541;SDS011;3812;50.006;8.230;2022-09-20T13:28:58;3.43;;;1.60;;
7541;SDS011;3812;50.006;8.230;2022-09-20T13:31:31;3.67;;;1.70;;
7541;SDS011;3812;50.006;8.230;2022-09-20T13:36:54;3.13;;;1.40;;
7541;SDS011;3812;50.006;8.230;2022-09-20T13:39:24;2.43;;;1.27;;
7541;SDS011;3812;50.006;8.230;2022-09-20T13:41:57;2.47;;;1.10;;
7541;SDS011;3812;50.006;8.230;2022-09-20T13:44:28;1.67;;;1.40;;
7541;SDS011;3812;50.006;8.230;2022-09-20T13:46:59;3.17;;;1.23;;
7541;SDS011;3812;50.006;8.230;2022-09-20T13:49:29;1.60;;;1.30;;
7541;SDS011;3812;50.006;8.230;2022-09-20T13:51:56;3.83;;;1.50;;
7541;SDS011;3812;50.006;8.230;2022-09-20T13:54:25;2.03;;;1.20;;
7541;SDS011;3812;50.006;8.230;2022-09-20T13:56:53;1.70;;;1.17;;
7541;SDS011;3812;50.006;8.230;2022-09-20T13:59:23;1.10;;;1.00;;
7541;SDS011;3812;50.006;8.230;2022-09-20T14:01:53;1.40;;;1.10;;
7541;SDS011;3812;50.006;8.230;2022-09-20T14:04:22;2.07;;;1.00;;
7541;SDS011;3812;50.006;8.230;2022-09-20T14:06:51;1.57;;;1.10;;
7541;SDS011;3812;50.006;8.230;2022-09-20T14:09:22;1.57;;;1.07;;
7541;SDS011;3812;50.006;8.230;2022-09-20T14:11:53;1.00;;;0.97;;
7541;SDS011;3812;50.006;8.230;2022-09-20T14:14:22;1.77;;;1.10;;
7541;SDS011;3812;50.006;8.230;2022-09-20T14:16:50;1.77;;;1.10;;
7541;SDS011;3812;50.006;8.230;2022-09-20T14:19:22;1.83;;;1.20;;
7541;SDS011;3812;50.006;8.230;2022-09-20T14:21:54;3.97;;;1.17;;
7541;SDS011;3812;50.006;8.230;2022-09-20T14:24:22;1.37;;;1.27;;
7541;SDS011;3812;50.006;8.230;2022-09-20T14:27:04;2.07;;;1.20;;
7541;SDS011;3812;50.006;8.230;2022-09-20T14:29:43;3.17;;;1.60;;
7541;SDS011;3812;50.006;8.230;2022-09-20T14:32:17;1.70;;;1.20;;
7541;SDS011;3812;50.006;8.230;2022-09-20T14:34:55;2.47;;;1.20;;
7541;SDS011;3812;50.006;8.230;2022-09-20T14:37:26;2.03;;;1.20;;
7541;SDS011;3812;50.006;8.230;2022-09-20T14:39:56;1.80;;;1.30;;
7541;SDS011;3812;50.006;8.230;2022-09-20T14:42:32;3.33;;;1.20;;
7541;SDS011;3812;50.006;8.230;2022-09-20T14:45:02;2.77;;;1.37;;
7541;SDS011;3812;50.006;8.230;2022-09-20T14:47:35;1.70;;;1.20;;
7541;SDS011;3812;50.006;8.230;2022-09-20T14:50:17;1.53;;;1.30;;
7541;SDS011;3812;50.006;8.230;2022-09-20T14:52:57;2.13;;;1.40;;
7541;SDS011;3812;50.006;8.230;2022-09-20T14:55:26;1.30;;;1.20;;
7541;SDS011;3812;50.006;8.230;2022-09-20T14:57:58;2.23;;;1.30;;
7541;SDS011;3812;50.006;8.230;2022-09-20T15:00:26;1.87;;;1.40;;
7541;SDS011;3812;50.006;8.230;2022-09-20T15:02:54;2.93;;;1.20;;
7541;SDS011;3812;50.006;8.230;2022-09-20T15:05:29;2.23;;;1.17;;
7541;SDS011;3812;50.006;8.230;2022-09-20T15:07:58;2.50;;;1.97;;
7541;SDS011;3812;50.006;8.230;2022-09-20T15:10:25;3.27;;;1.30;;
7541;SDS011;3812;50.006;8.230;2022-09-20T15:12:53;1.43;;;1.00;;
7541;SDS011;3812;50.006;8.230;2022-09-20T15:15:20;1.23;;;0.93;;
7541;SDS011;3812;50.006;8.230;2022-09-20T15:17:47;2.93;;;1.10;;
7541;SDS011;3812;50.006;8.230;2022-09-20T15:20:16;1.03;;;0.63;;
7541;SDS011;3812;50.006;8.230;2022-09-20T15:22:46;1.30;;;0.77;;
7541;SDS011;3812;50.006;8.230;2022-09-20T15:25:14;1.33;;;0.67;;
7541;SDS011;3812;50.006;8.230;2022-09-20T15:27:44;0.83;;;0.70;;
7541;SDS011;3812;50.006;8.230;2022-09-20T15:30:12;1.50;;;0.70;;
7541;SDS011;3812;50.006;8.230;2022-09-20T15:32:41;1.63;;;0.80;;
7541;SDS011;3812;50.006;8.230;2022-09-20T15:35:09;1.43;;;0.53;;
7541;SDS011;3812;50.006;8.230;2022-09-20T15:37:36;2.10;;;0.67;;
7541;SDS011;3812;50.006;8.230;2022-09-20T15:40:05;1.87;;;0.83;;
7541;SDS011;3812;50.006;8.230;2022-09-20T15:42:33;1.20;;;1.00;;
7541;SDS011;3812;50.006;8.230;2022-09-20T15:45:05;1.40;;;0.80;;
7541;SDS011;3812;50.006;8.230;2022-09-20T15:47:34;1.53;;;0.90;;
7541;SDS011;3812;50.006;8.230;2022-09-20T15:50:02;1.53;;;0.90;;
7541;SDS011;3812;50.006;8.230;2022-09-20T15:52:33;1.33;;;0.90;;
7541;SDS011;3812;50.006;8.230;2022-09-20T15:55:01;2.43;;;0.83;;
7541;SDS011;3812;50.006;8.230;2022-09-20T15:57:30;1.63;;;0.93;;
7541;SDS011;3812;50.006;8.230;2022-09-20T15:59:58;1.87;;;1.00;;
7541;SDS011;3812;50.006;8.230;2022-09-20T16:02:25;1.23;;;0.90;;
7541;SDS011;3812;50.006;8.230;2022-09-20T16:04:53;2.57;;;1.10;;
7541;SDS011;3812;50.006;8.230;2022-09-20T16:07:20;3.90;;;1.30;;
7541;SDS011;3812;50.006;8.230;2022-09-20T16:09:50;1.87;;;1.10;;
7541;SDS011;3812;50.006;8.230;2022-09-20T16:12:18;2.63;;;1.10;;
7541;SDS011;3812;50.006;8.230;2022-09-20T16:14:46;1.47;;;1.20;;
7541;SDS011;3812;50.006;8.230;2022-09-20T16:17:14;2.27;;;1.20;;
7541;SDS011;3812;50.006;8.230;2022-09-20T16:19:41;2.07;;;1.37;;
7541;SDS011;3812;50.006;8.230;2022-09-20T16:22:09;2.43;;;1.30;;
7541;SDS011;3812;50.006;8.230;2022-09-20T16:24:36;4.43;;;1.37;;
7541;SDS011;3812;50.006;8.230;2022-09-20T16:27:04;3.07;;;1.20;;
7541;SDS011;3812;50.006;8.230;2022-09-20T16:29:33;3.43;;;1.27;;
7541;SDS011;3812;50.006;8.230;2022-09-20T16:32:01;3.30;;;1.40;;
7541;SDS011;3812;50.006;8.230;2022-09-20T16:34:30;2.77;;;1.30;;
7541;SDS011;3812;50.006;8.230;2022-09-20T16:37:00;4.00;;;1.63;;
7541;SDS011;3812;50.006;8.230;2022-09-20T16:39:29;3.17;;;1.53;;
7541;SDS011;3812;50.006;8.230;2022-09-20T16:41:57;1.93;;;1.43;;
7541;SDS011;3812;50.006;8.230;2022-09-20T16:44:29;2.43;;;1.60;;
7541;SDS011;3812;50.006;8.230;2022-09-20T16:46:56;3.57;;;1.43;;
7541;SDS011;3812;50.006;8.230;2022-09-20T16:49:24;3.03;;;1.60;;
7541;SDS011;3812;50.006;8.230;2022-09-20T16:51:52;2.33;;;1.30;;
7541;SDS011;3812;50.006;8.230;2022-09-20T16:54:19;2.20;;;1.50;;
7541;SDS011;3812;50.006;8.230;2022-09-20T16:56:47;3.20;;;1.60;;